Time;durP1;ratioP1;P1;durP2;ratioP2;P2;SDS_P1;SDS_P2;PMS_P1;PMS_P2;Temp;Humidity;BMP_temperature;BMP_pressure;BME280_temperature;BME280_humidity;BME280_pressure;Samples;Min_cycle;Max_cycle;Signal;HPM_P1;HPM_P2
2023/04/02 00:01:36;;;;;;;;;;;;;;;20.27;49.43;100695.41;4962112;28;2597;-63
2023/04/02 00:04:04;;;;;;;;;;;;;;;20.27;49.61;100704.03;4938188;28;2705;-62
2023/04/02 00:06:31;;;;;;;;;;;;;;;20.25;49.55;100701.09;4961364;28;2641;-63
2023/04/02 00:09:00;;;;;;;;;;;;;;;20.25;49.45;100715.47;4942575;28;2643;-62
2023/04/02 00:11:38;;;;;;;;;;;;;;;20.23;49.46;100721.13;4961533;28;2706;-62
2023/04/02 00:14:05;;;;;;;;;;;;;;;20.24;49.52;100713.97;4965687;28;2643;-63
2023/04/02 00:16:31;;;;;;;;;;;;;;;20.23;49.49;100721.13;4952704;28;2664;-62
2023/04/02 00:18:59;;;;;;;;;;;;;;;20.22;49.42;100728.25;4960932;28;2563;-62
2023/04/02 00:21:26;;;;;;;;;;;;;;;20.21;49.49;100726.78;4940940;28;2665;-62
2023/04/02 00:23:52;;;;;;;;;;;;;;;20.22;49.56;100726.13;4953788;28;2749;-62
2023/04/02 00:26:20;;;;;;;;;;;;;;;20.23;49.76;100730.47;4967413;28;2238;-62
2023/04/02 00:28:46;;;;;;;;;;;;;;;20.27;49.41;100729.91;4963646;28;2653;-62
2023/04/02 00:31:13;;;;;;;;;;;;;;;20.27;49.40;100735.66;4964314;28;2532;-62
2023/04/02 00:33:41;;;;;;;;;;;;;;;20.28;49.57;100740.03;4957910;28;2682;-62
2023/04/02 00:36:07;;;;;;;;;;;;;;;20.29;49.25;100744.38;4946466;28;2677;-62
2023/04/02 00:38:34;;;;;;;;;;;;;;;20.29;49.62;100750.13;4938963;28;2532;-62
2023/04/02 00:41:01;;;;;;;;;;;;;;;20.29;49.75;100750.13;4959761;28;2760;-62
2023/04/02 00:43:29;;;;;;;;;;;;;;;20.30;49.57;100757.38;4962809;28;2855;-62
2023/04/02 00:45:56;;;;;;;;;;;;;;;20.29;49.70;100755.88;4940097;28;2776;-62
2023/04/02 00:48:27;;;;;;;;;;;;;;;20.28;49.62;100758.03;4963095;28;2649;-62
2023/04/02 00:50:53;;;;;;;;;;;;;;;20.27;49.62;100764.41;4940232;28;2669;-62
2023/04/02 00:53:22;;;;;;;;;;;;;;;20.28;49.67;100765.91;4962048;28;2627;-62
2023/04/02 00:55:48;;;;;;;;;;;;;;;20.27;49.53;100770.16;4947773;28;1747;-62
2023/04/02 00:58:22;;;;;;;;;;;;;;;20.27;49.42;100770.16;4963776;28;2513;-62
2023/04/02 01:00:48;;;;;;;;;;;;;;;20.25;49.41;100767.97;4939447;28;2657;-62
2023/04/02 01:03:15;;;;;;;;;;;;;;;20.25;49.40;100772.97;4963831;28;2564;-62
2023/04/02 01:05:55;;;;;;;;;;;;;;;20.24;49.60;100783.72;4964846;28;3168;-62
2023/04/02 01:08:34;;;;;;;;;;;;;;;20.25;49.60;100775.84;4962507;28;2749;-63
2023/04/02 01:11:11;;;;;;;;;;;;;;;20.25;49.46;100778.72;4947980;28;2659;-63
2023/04/02 01:13:39;;;;;;;;;;;;;;;20.25;49.60;100782.34;4943090;28;2719;-62
2023/04/02 01:16:24;;;;;;;;;;;;;;;20.26;49.50;100792.44;4963152;28;2101;-62
2023/04/02 01:18:57;;;;;;;;;;;;;;;20.29;49.42;100791.16;4944705;28;2350;-62
2023/04/02 01:21:54;;;;;;;;;;;;;;;20.29;49.39;100796.13;4964971;28;2583;-62
2023/04/02 01:24:20;;;;;;;;;;;;;;;20.29;49.37;100799.78;4959832;28;2699;-62
2023/04/02 01:26:56;;;;;;;;;;;;;;;20.30;49.41;100806.25;4961095;28;2688;-62
2023/04/02 01:29:44;;;;;;;;;;;;;;;20.29;49.59;100814.16;4956649;28;2605;-62
2023/04/02 01:32:11;;;;;;;;;;;;;;;20.29;49.35;100819.13;4960656;28;2459;-63
2023/04/02 01:34:38;;;;;;;;;;;;;;;20.28;49.41;100829.16;4941452;28;2797;-62
2023/04/02 01:37:07;;;;;;;;;;;;;;;20.27;49.49;100839.16;4941420;28;2644;-62
2023/04/02 01:39:53;;;;;;;;;;;;;;;20.26;49.55;100834.81;4945206;28;2617;-62
2023/04/02 01:42:20;;;;;;;;;;;;;;;20.25;49.47;100836.97;4954381;28;2600;-62
2023/04/02 01:44:53;;;;;;;;;;;;;;;20.25;49.33;100850.59;4968137;28;2670;-62
2023/04/02 01:47:24;;;;;;;;;;;;;;;20.24;49.52;100857.72;4965888;28;2577;-62
2023/04/02 01:49:52;;;;;;;;;;;;;;;20.23;49.49;100844.75;4944861;28;2700;-62
2023/04/02 01:52:24;;;;;;;;;;;;;;;20.24;49.58;100863.47;4965296;28;2751;-62
2023/04/02 01:54:51;;;;;;;;;;;;;;;20.25;49.46;100870.72;4943070;28;2627;-62
2023/04/02 01:57:17;;;;;;;;;;;;;;;20.27;49.49;100867.94;4940931;28;2592;-61
2023/04/02 01:59:44;;;;;;;;;;;;;;;20.27;49.43;100879.44;4949962;28;2723;-63
2023/04/02 02:02:11;;;;;;;;;;;;;;;20.27;49.48;100885.94;4941455;28;2779;-62
2023/04/02 02:04:39;;;;;;;;;;;;;;;20.28;49.48;100878.06;4933245;28;2555;-62
2023/04/02 02:07:13;;;;;;;;;;;;;;;20.28;49.27;100886.69;4955751;28;2628;-62
2023/04/02 02:09:40;;;;;;;;;;;;;;;20.28;49.30;100886.69;4943961;28;2557;-62
2023/04/02 02:12:06;;;;;;;;;;;;;;;20.27;49.36;100894.56;4966155;28;2725;-62
2023/04/02 02:14:32;;;;;;;;;;;;;;;20.27;49.15;100890.94;4964595;28;2670;-62
2023/04/02 02:17:00;;;;;;;;;;;;;;;20.26;49.33;100898.81;4963456;28;2737;-62
2023/04/02 02:19:35;;;;;;;;;;;;;;;20.26;49.53;100898.81;4964479;28;2770;-62
2023/04/02 02:22:05;;;;;;;;;;;;;;;20.25;49.39;100905.25;4958667;28;2683;-62
2023/04/02 02:24:32;;;;;;;;;;;;;;;20.26;49.35;100912.47;4959038;28;2683;-62
2023/04/02 02:27:04;;;;;;;;;;;;;;;20.24;49.49;100913.09;4947136;28;2603;-61
2023/04/02 02:29:31;;;;;;;;;;;;;;;20.23;49.43;100914.50;4948743;28;2829;-62
2023/04/02 02:31:57;;;;;;;;;;;;;;;20.23;49.32;100919.50;4962534;28;2778;-62
2023/04/02 02:34:27;;;;;;;;;;;;;;;20.23;49.48;100928.16;4953698;28;2997;-62
2023/04/02 02:36:57;;;;;;;;;;;;;;;20.22;49.50;100924.50;4945328;28;2842;-62
2023/04/02 02:39:42;;;;;;;;;;;;;;;20.23;49.38;100928.16;4940110;28;2635;-62
2023/04/02 02:42:11;;;;;;;;;;;;;;;20.24;49.26;100926.75;4946955;28;2688;-62
2023/04/02 02:44:39;;;;;;;;;;;;;;;20.25;49.26;100939.75;4958641;28;2644;-62
2023/04/02 02:47:10;;;;;;;;;;;;;;;20.26;49.26;100941.22;4963231;28;2778;-62
2023/04/02 02:49:38;;;;;;;;;;;;;;;20.27;49.28;100949.22;4957271;28;2526;-62
2023/04/02 02:52:11;;;;;;;;;;;;;;;20.28;49.21;100955.69;4938333;28;2648;-62
2023/04/02 02:54:51;;;;;;;;;;;;;;;20.29;49.26;100957.16;4958689;28;2657;-62
2023/04/02 02:57:20;;;;;;;;;;;;;;;20.31;49.09;100960.16;4944131;28;2464;-62
2023/04/02 02:59:47;;;;;;;;;;;;;;;20.32;49.04;100958.78;4943624;28;2659;-62
2023/04/02 03:02:14;;;;;;;;;;;;;;;20.33;49.06;100963.13;4932324;28;2710;-62
2023/04/02 03:04:45;;;;;;;;;;;;;;;20.32;49.05;100967.41;4963182;28;2555;-62
2023/04/02 03:07:15;;;;;;;;;;;;;;;20.34;49.12;100981.13;4938993;28;2686;-62
2023/04/02 03:09:44;;;;;;;;;;;;;;;20.34;49.07;100976.13;4960212;28;2670;-62
2023/04/02 03:12:31;;;;;;;;;;;;;;;20.35;49.04;100983.34;4953843;28;2980;-62
2023/04/02 03:15:11;;;;;;;;;;;;;;;20.34;49.23;100993.38;4964453;28;2556;-62
2023/04/02 03:17:39;;;;;;;;;;;;;;;20.35;49.01;100989.09;4940854;28;2583;-62
2023/04/02 03:20:13;;;;;;;;;;;;;;;20.34;49.04;101004.88;4948148;28;2466;-62
2023/04/02 03:22:44;;;;;;;;;;;;;;;20.33;49.16;100997.63;4943865;28;2707;-62
2023/04/02 03:25:26;;;;;;;;;;;;;;;20.34;49.24;101010.63;4947174;28;2846;-62
2023/04/02 03:28:00;;;;;;;;;;;;;;;20.32;49.37;100996.16;4946867;28;2456;-62
2023/04/02 03:30:28;;;;;;;;;;;;;;;20.33;49.23;101008.41;4959647;28;2960;-62
2023/04/02 03:32:59;;;;;;;;;;;;;;;20.34;49.11;101022.16;4945253;28;2547;-62
2023/04/02 03:35:36;;;;;;;;;;;;;;;20.34;49.25;101022.16;4962828;28;2536;-62
2023/04/02 03:38:05;;;;;;;;;;;;;;;20.35;49.17;101029.38;4962011;28;2555;-62
2023/04/02 03:40:37;;;;;;;;;;;;;;;20.36;49.20;101030.84;4936078;28;1864;-62
2023/04/02 03:43:05;;;;;;;;;;;;;;;20.36;49.01;101035.88;4958653;28;2606;-62
2023/04/02 03:45:33;;;;;;;;;;;;;;;20.34;49.20;101045.16;4924643;28;2585;-62
2023/04/02 03:48:04;;;;;;;;;;;;;;;20.35;49.21;101048.75;4934795;28;1848;-62
2023/04/02 03:50:43;;;;;;;;;;;;;;;20.34;49.24;101041.50;4964453;28;2729;-62
2023/04/02 03:53:09;;;;;;;;;;;;;;;20.34;49.16;101056.66;4949368;28;2645;-62
2023/04/02 03:55:36;;;;;;;;;;;;;;;20.34;49.08;101065.28;4931147;28;2507;-62
2023/04/02 03:58:05;;;;;;;;;;;;;;;20.34;49.09;101065.28;4945069;28;2694;-62
2023/04/02 04:00:35;;;;;;;;;;;;;;;20.35;49.15;101069.63;4961771;28;2552;-62
2023/04/02 04:03:02;;;;;;;;;;;;;;;20.37;49.05;101069.75;4964975;28;2469;-62
2023/04/02 04:05:33;;;;;;;;;;;;;;;20.39;48.99;101081.34;4940571;28;2744;-62
2023/04/02 04:08:02;;;;;;;;;;;;;;;20.38;48.96;101079.84;4941362;28;2947;-62
2023/04/02 04:10:28;;;;;;;;;;;;;;;20.38;49.00;101088.47;4938145;28;2720;-62
2023/04/02 04:12:56;;;;;;;;;;;;;;;20.40;49.21;101093.59;4963422;28;2735;-62
2023/04/02 04:15:46;;;;;;;;;;;;;;;20.41;48.95;101095.84;4941664;28;3034;-62
2023/04/02 04:18:20;;;;;;;;;;;;;;;20.40;49.08;101100.09;4960537;28;2646;-62
2023/04/02 04:20:55;;;;;;;;;;;;;;;20.40;49.04;101096.47;4960442;28;2607;-62
2023/04/02 04:23:34;;;;;;;;;;;;;;;20.39;49.13;101104.34;4962822;28;2808;-62
2023/04/02 04:26:08;;;;;;;;;;;;;;;20.38;48.99;101120.09;4948599;28;2737;-62
2023/04/02 04:28:45;;;;;;;;;;;;;;;20.38;49.06;101123.00;4944925;28;2618;-62
2023/04/02 04:31:19;;;;;;;;;;;;;;;20.36;49.04;101131.50;4937246;28;2859;-62
2023/04/02 04:33:49;;;;;;;;;;;;;;;20.36;48.96;101128.63;4942183;28;2668;-62
2023/04/02 04:36:27;;;;;;;;;;;;;;;20.39;48.97;101144.63;4947604;28;2275;-62
2023/04/02 04:39:13;;;;;;;;;;;;;;;20.38;49.22;101143.13;4926636;28;2566;-62
2023/04/02 04:41:43;;;;;;;;;;;;;;;20.38;48.86;101146.00;4946448;28;2607;-62
2023/04/02 04:44:09;;;;;;;;;;;;;;;20.39;48.94;101144.63;4963557;28;2548;-62
2023/04/02 04:46:40;;;;;;;;;;;;;;;20.39;49.04;101153.25;4963205;28;2583;-62
2023/04/02 04:49:07;;;;;;;;;;;;;;;20.39;49.03;101156.13;4958471;28;2772;-62
2023/04/02 04:51:41;;;;;;;;;;;;;;;20.39;48.94;101167.63;4927806;28;2623;-62
2023/04/02 04:54:09;;;;;;;;;;;;;;;20.39;49.12;101161.88;4943715;28;2548;-62
2023/04/02 04:56:36;;;;;;;;;;;;;;;20.38;48.96;101171.16;4924074;28;2647;-62
2023/04/02 04:59:13;;;;;;;;;;;;;;;20.37;48.95;101176.16;4948765;28;2478;-62
2023/04/02 05:01:42;;;;;;;;;;;;;;;20.38;49.16;101183.38;4921166;28;2535;-62
2023/04/02 05:04:15;;;;;;;;;;;;;;;20.37;49.00;101190.53;4965172;28;2563;-62
2023/04/02 05:06:53;;;;;;;;;;;;;;;20.39;49.19;101187.03;4936471;28;2787;-62
2023/04/02 05:09:39;;;;;;;;;;;;;;;20.40;48.83;101197.13;4918281;28;2676;-62
2023/04/02 05:12:11;;;;;;;;;;;;;;;20.40;48.97;101197.88;4965078;28;2403;-62
2023/04/02 05:14:39;;;;;;;;;;;;;;;20.41;48.91;101205.13;4945558;28;2657;-62
2023/04/02 05:17:07;;;;;;;;;;;;;;;20.42;48.85;101205.88;4944310;28;2951;-62
2023/04/02 05:19:36;;;;;;;;;;;;;;;20.42;48.96;101206.63;4927225;28;2220;-62
2023/04/02 05:22:13;;;;;;;;;;;;;;;20.43;48.88;101224.63;4944104;28;2710;-62
2023/04/02 05:24:44;;;;;;;;;;;;;;;20.43;49.03;101234.00;4945684;28;2513;-62
2023/04/02 05:27:23;;;;;;;;;;;;;;;20.43;49.13;101224.63;4965397;28;2651;-62
2023/04/02 05:29:51;;;;;;;;;;;;;;;20.42;48.88;101235.38;4967323;28;2680;-62
2023/04/02 05:32:26;;;;;;;;;;;;;;;20.42;48.86;101246.88;4966140;28;2686;-62
2023/04/02 05:34:53;;;;;;;;;;;;;;;20.42;49.01;101251.91;4963477;28;2753;-62
2023/04/02 05:37:22;;;;;;;;;;;;;;;20.42;49.04;101254.78;4948712;28;2454;-62
2023/04/02 05:39:52;;;;;;;;;;;;;;;20.44;48.86;101267.13;4939219;28;2671;-63
2023/04/02 05:42:21;;;;;;;;;;;;;;;20.47;48.96;101260.09;4948253;28;3059;-62
2023/04/02 05:45:13;;;;;;;;;;;;;;;20.44;48.83;101272.88;4949277;28;2619;-63
2023/04/02 05:47:42;;;;;;;;;;;;;;;20.43;49.06;101274.28;4946425;28;2764;-63
2023/04/02 05:50:18;;;;;;;;;;;;;;;20.44;48.83;101277.91;4965557;28;2608;-62
2023/04/02 05:53:05;;;;;;;;;;;;;;;20.42;48.81;101281.41;4966541;28;2357;-62
2023/04/02 05:55:37;;;;;;;;;;;;;;;20.43;48.91;101294.41;4958780;28;2702;-63
2023/04/02 05:58:06;;;;;;;;;;;;;;;20.43;48.98;101291.53;4947350;28;2566;-63
2023/04/02 06:01:00;;;;;;;;;;;;;;;20.42;49.03;101290.03;4946298;28;2648;-62
2023/04/02 06:03:38;;;;;;;;;;;;;;;20.41;49.08;101294.31;4927949;28;2722;-63
2023/04/02 06:06:12;;;;;;;;;;;;;;;20.40;48.94;101301.44;4961428;28;2820;-63
2023/04/02 06:08:44;;;;;;;;;;;;;;;20.39;49.11;101302.81;4945660;28;3005;-63
2023/04/02 06:11:11;;;;;;;;;;;;;;;20.37;48.75;101311.34;4942563;28;2625;-67
2023/04/02 06:13:40;;;;;;;;;;;;;;;18.08;39.33;101312.41;4946434;28;2486;-67
2023/04/02 06:16:06;;;;;;;;;;;;;;;17.89;40.11;101313.34;4942130;28;2801;-62
2023/04/02 06:18:33;;;;;;;;;;;;;;;18.84;40.40;101315.66;4963892;28;2882;-65
2023/04/02 06:21:02;;;;;;;;;;;;;;;19.50;41.20;101330.22;4965952;28;2652;-63
2023/04/02 06:23:36;;;;;;;;;;;;;;;19.80;42.76;101331.97;4938823;28;2623;-64
2023/04/02 06:26:15;;;;;;;;;;;;;;;19.99;43.81;101344.50;4949192;28;2707;-64
2023/04/02 06:28:47;;;;;;;;;;;;;;;20.07;45.75;101345.69;4967454;28;2157;-64
2023/04/02 06:31:22;;;;;;;;;;;;;;;20.11;47.06;101347.28;4950371;28;1799;-64
2023/04/02 06:33:51;;;;;;;;;;;;;;;20.13;46.77;101344.53;4934449;28;2496;-63
2023/04/02 06:36:19;;;;;;;;;;;;;;;20.15;46.85;101347.50;4965780;28;2353;-61
2023/04/02 06:38:46;;;;;;;;;;;;;;;20.21;46.45;101353.59;4965807;28;2931;-64
2023/04/02 06:41:15;;;;;;;;;;;;;;;20.21;46.73;101374.47;4946222;28;2774;-63
2023/04/02 06:44:01;;;;;;;;;;;;;;;20.20;46.87;101367.25;4954241;28;2590;-63
2023/04/02 06:46:55;;;;;;;;;;;;;;;20.16;46.97;101374.88;4944536;28;2830;-62
2023/04/02 06:49:23;;;;;;;;;;;;;;;20.13;46.49;101384.78;4950236;28;2025;-62
2023/04/02 06:51:54;;;;;;;;;;;;;;;20.12;46.30;101389.03;4935319;28;2662;-62
2023/04/02 06:54:20;;;;;;;;;;;;;;;20.09;45.88;101386.06;4966270;28;2634;-62
2023/04/02 06:56:52;;;;;;;;;;;;;;;20.08;45.73;101393.16;4956746;28;2723;-62
2023/04/02 06:59:26;;;;;;;;;;;;;;;20.06;45.89;101384.44;4967163;28;2664;-62
2023/04/02 07:02:02;;;;;;;;;;;;;;;20.05;44.97;101385.09;4969060;28;2591;-63
2023/04/02 07:04:29;;;;;;;;;;;;;;;19.98;44.89;101386.13;4936156;28;2529;-62
2023/04/02 07:06:56;;;;;;;;;;;;;;;20.01;44.52;101388.47;4949855;28;2718;-61
2023/04/02 07:09:25;;;;;;;;;;;;;;;20.02;44.30;101389.97;4963934;28;2094;-62
2023/04/02 07:11:55;;;;;;;;;;;;;;;20.02;44.60;101394.97;4949772;28;2696;-62
2023/04/02 07:14:22;;;;;;;;;;;;;;;20.12;44.08;101398.41;4964041;28;2663;-62
2023/04/02 07:16:49;;;;;;;;;;;;;;;20.08;43.01;101398.91;4943513;28;2980;-60
2023/04/02 07:19:16;;;;;;;;;;;;;;;19.66;41.98;101412.34;4964186;28;2747;-62
2023/04/02 07:21:43;;;;;;;;;;;;;;;19.84;42.32;101409.06;4960955;28;2657;-63
2023/04/02 07:24:09;;;;;;;;;;;;;;;19.99;42.41;101413.47;4965656;28;2682;-64
2023/04/02 07:26:36;;;;;;;;;;;;;;;20.09;43.15;101411.19;4965075;28;2682;-64
2023/04/02 07:29:02;;;;;;;;;;;;;;;20.14;43.47;101400.66;4966631;28;1864;-62
2023/04/02 07:31:28;;;;;;;;;;;;;;;20.18;43.52;101413.13;4967039;28;2705;-61
2023/04/02 07:33:57;;;;;;;;;;;;;;;20.19;43.87;101419.63;4965179;28;2462;-61
2023/04/02 07:36:23;;;;;;;;;;;;;;;20.19;43.89;101423.25;4967257;28;2050;-64
2023/04/02 07:38:49;;;;;;;;;;;;;;;20.20;43.81;101433.38;4966233;28;2619;-64
2023/04/02 07:41:16;;;;;;;;;;;;;;;20.21;43.89;101446.38;4966864;28;2651;-64
2023/04/02 07:43:42;;;;;;;;;;;;;;;20.23;43.85;101448.63;4966360;28;2385;-64
2023/04/02 07:46:08;;;;;;;;;;;;;;;20.25;44.05;101445.88;4967770;28;1701;-63
2023/04/02 07:48:35;;;;;;;;;;;;;;;20.22;44.04;101452.88;4967786;28;2646;-64
2023/04/02 07:51:04;;;;;;;;;;;;;;;20.25;44.31;101454.50;4966775;28;1649;-64
2023/04/02 07:53:32;;;;;;;;;;;;;;;20.26;44.25;101455.97;4966942;28;2674;-64
2023/04/02 07:55:58;;;;;;;;;;;;;;;20.25;44.35;101466.00;4964774;28;2757;-63
2023/04/02 07:58:25;;;;;;;;;;;;;;;20.25;44.41;101474.63;4966928;28;2579;-65
2023/04/02 08:00:51;;;;;;;;;;;;;;;20.26;44.20;101467.47;4966047;28;2845;-64
2023/04/02 08:03:17;;;;;;;;;;;;;;;20.24;44.46;101470.97;4966574;28;2457;-64
2023/04/02 08:05:51;;;;;;;;;;;;;;;20.27;44.27;101477.59;4966237;28;2468;-64
2023/04/02 08:08:17;;;;;;;;;;;;;;;20.28;44.28;101481.97;4965774;28;2713;-64
2023/04/02 08:10:43;;;;;;;;;;;;;;;20.28;44.45;101481.97;4966014;28;2687;-64
2023/04/02 08:13:10;;;;;;;;;;;;;;;20.31;44.55;101483.56;4965931;28;2571;-64
2023/04/02 08:15:37;;;;;;;;;;;;;;;20.30;44.48;101497.22;4967306;28;2444;-65
2023/04/02 08:18:03;;;;;;;;;;;;;;;20.31;44.42;101500.84;4965441;28;2666;-64
2023/04/02 08:20:30;;;;;;;;;;;;;;;20.33;44.33;101494.47;4965169;28;2636;-64
2023/04/02 08:22:57;;;;;;;;;;;;;;;20.36;44.45;101496.78;4966941;28;2037;-64
2023/04/02 08:25:23;;;;;;;;;;;;;;;20.36;44.50;101498.94;4964437;28;2638;-64
2023/04/02 08:27:49;;;;;;;;;;;;;;;20.35;44.61;101506.09;4966375;28;2489;-64
2023/04/02 08:30:16;;;;;;;;;;;;;;;20.35;44.79;101506.81;4966833;28;2527;-64
2023/04/02 08:32:42;;;;;;;;;;;;;;;20.34;44.73;101513.97;4964542;28;3059;-64
2023/04/02 08:35:09;;;;;;;;;;;;;;;20.38;44.73;101516.31;4966121;28;2794;-64
2023/04/02 08:37:36;;;;;;;;;;;;;;;20.37;44.82;101521.31;4965749;28;2644;-64
2023/04/02 08:40:03;;;;;;;;;;;;;;;20.39;44.73;101535.09;4966860;28;2704;-64
2023/04/02 08:42:51;;;;;;;;;;;;;;;20.36;44.80;101534.19;4965835;28;1669;-64
2023/04/02 08:45:35;;;;;;;;;;;;;;;20.38;44.87;101534.31;4969189;28;1726;-64
2023/04/02 08:48:04;;;;;;;;;;;;;;;20.40;44.85;101533.69;4951893;28;1975;-66
2023/04/02 08:50:34;;;;;;;;;;;;;;;20.40;44.89;101543.06;4969997;28;2322;-64
2023/04/02 08:53:04;;;;;;;;;;;;;;;20.41;45.00;101538.81;4969790;28;2672;-64
2023/04/02 08:55:33;;;;;;;;;;;;;;;20.40;45.09;101543.06;4970462;28;1606;-64
2023/04/02 08:58:01;;;;;;;;;;;;;;;20.43;44.96;101553.31;4969130;28;2516;-64
2023/04/02 09:00:35;;;;;;;;;;;;;;;20.41;45.06;101553.19;4950576;28;1735;-65
2023/04/02 09:03:13;;;;;;;;;;;;;;;20.42;45.13;101556.81;4969280;28;2281;-64
2023/04/02 09:05:40;;;;;;;;;;;;;;;20.41;45.39;101561.06;4952302;28;2584;-65
2023/04/02 09:08:23;;;;;;;;;;;;;;;20.41;45.14;101564.72;4949658;28;2811;-64
2023/04/02 09:11:01;;;;;;;;;;;;;;;20.42;45.20;101569.06;4969619;28;2544;-64
2023/04/02 09:13:29;;;;;;;;;;;;;;;20.42;45.17;101562.56;4968748;28;2634;-67
2023/04/02 09:15:57;;;;;;;;;;;;;;;20.41;45.23;101564.72;4967606;28;2659;-64
2023/04/02 09:18:26;;;;;;;;;;;;;;;20.43;45.20;101561.94;4965861;28;2381;-64
2023/04/02 09:20:52;;;;;;;;;;;;;;;20.45;45.26;101572.81;4948338;28;2683;-64
2023/04/02 09:23:19;;;;;;;;;;;;;;;20.46;45.26;101574.31;4969821;28;1618;-64
2023/04/02 09:25:46;;;;;;;;;;;;;;;20.45;45.28;101573.56;4969201;28;2557;-64
2023/04/02 09:28:28;;;;;;;;;;;;;;;20.46;45.39;101569.31;4968579;28;1696;-64
2023/04/02 09:31:11;;;;;;;;;;;;;;;20.47;45.38;101570.06;4969137;28;2642;-64
2023/04/02 09:33:40;;;;;;;;;;;;;;;20.47;45.60;101579.44;4966736;28;2607;-64
2023/04/02 09:36:09;;;;;;;;;;;;;;;20.47;45.55;101578.69;4967796;28;3034;-64
2023/04/02 09:38:35;;;;;;;;;;;;;;;20.46;45.55;101592.31;4967263;28;2483;-64
2023/04/02 09:41:03;;;;;;;;;;;;;;;20.46;45.73;101585.81;4951942;28;2514;-65
2023/04/02 09:43:30;;;;;;;;;;;;;;;20.45;45.52;101590.81;4968841;28;2419;-63
2023/04/02 09:46:03;;;;;;;;;;;;;;;20.47;45.61;101598.81;4968917;28;2481;-65
2023/04/02 09:48:31;;;;;;;;;;;;;;;20.47;45.83;101599.56;4967089;28;2649;-65
2023/04/02 09:51:03;;;;;;;;;;;;;;;20.48;45.78;101601.06;4968078;28;1842;-65
2023/04/02 09:53:33;;;;;;;;;;;;;;;20.48;45.56;101618.34;4967045;28;1962;-65
2023/04/02 09:56:07;;;;;;;;;;;;;;;20.47;45.61;101605.31;4969691;28;1850;-66
2023/04/02 09:58:33;;;;;;;;;;;;;;;20.49;45.74;101619.81;4962751;28;1647;-65
2023/04/02 10:00:59;;;;;;;;;;;;;;;20.49;45.67;101631.31;4969000;28;1560;-65
2023/04/02 10:03:32;;;;;;;;;;;;;;;20.50;45.78;101621.34;4970224;28;1889;-65
2023/04/02 10:06:05;;;;;;;;;;;;;;;20.50;45.69;101634.94;4967845;28;1609;-64
2023/04/02 10:08:31;;;;;;;;;;;;;;;20.53;45.65;101627.22;4967440;28;1858;-67
2023/04/02 10:11:01;;;;;;;;;;;;;;;20.51;45.66;101625.69;4965805;28;1684;-67
2023/04/02 10:13:38;;;;;;;;;;;;;;;20.49;45.71;101625.56;4951727;28;1922;-66
2023/04/02 10:16:06;;;;;;;;;;;;;;;20.48;45.77;101641.34;4967344;28;1654;-67
2023/04/02 10:18:52;;;;;;;;;;;;;;;20.48;46.04;101640.63;4965204;28;1599;-67
2023/04/02 10:21:30;;;;;;;;;;;;;;;20.48;45.78;101644.22;4966895;28;1873;-66
2023/04/02 10:23:58;;;;;;;;;;;;;;;20.51;45.81;101642.97;4966897;28;1881;-67
2023/04/02 10:26:30;;;;;;;;;;;;;;;20.53;45.80;101647.34;4969909;28;1743;-67
2023/04/02 10:29:07;;;;;;;;;;;;;;;20.53;46.00;101641.59;4952295;28;2021;-67
2023/04/02 10:31:36;;;;;;;;;;;;;;;20.54;45.89;101640.94;4968717;28;1801;-67
2023/04/02 10:34:05;;;;;;;;;;;;;;;20.55;45.84;101644.56;4947860;28;1906;-67
2023/04/02 10:36:49;;;;;;;;;;;;;;;20.56;45.83;101654.72;4964845;28;2901;-66
2023/04/02 10:39:24;;;;;;;;;;;;;;;20.53;45.88;101658.84;4945836;28;2450;-66
2023/04/02 10:42:14;;;;;;;;;;;;;;;20.57;45.91;101656.22;4967383;28;1636;-65
2023/04/02 10:44:54;;;;;;;;;;;;;;;20.55;45.73;101667.59;4961796;28;2492;-65
2023/04/02 10:47:25;;;;;;;;;;;;;;;20.57;45.71;101682.13;4965715;28;2665;-66
2023/04/02 10:49:59;;;;;;;;;;;;;;;20.57;45.84;101661.97;4967987;28;2302;-66
2023/04/02 10:52:28;;;;;;;;;;;;;;;20.56;46.06;101666.22;4964509;28;2718;-64
2023/04/02 10:54:55;;;;;;;;;;;;;;;20.57;46.00;101676.38;4962861;28;2629;-64
2023/04/02 10:57:25;;;;;;;;;;;;;;;20.54;45.76;101678.34;4966718;28;2667;-63
2023/04/02 10:59:53;;;;;;;;;;;;;;;20.57;45.93;101682.13;4967878;28;2765;-64
2023/04/02 11:02:30;;;;;;;;;;;;;;;20.55;45.86;101685.63;4949488;28;2474;-62
2023/04/02 11:04:57;;;;;;;;;;;;;;;20.54;45.92;101686.25;4967166;28;1593;-64
2023/04/02 11:07:26;;;;;;;;;;;;;;;20.58;45.76;101695.16;4945978;28;2323;-65
2023/04/02 11:09:53;;;;;;;;;;;;;;;20.56;46.04;101686.38;4954352;28;1737;-65
2023/04/02 11:12:32;;;;;;;;;;;;;;;20.55;45.97;101699.25;4955110;28;2737;-65
2023/04/02 11:14:58;;;;;;;;;;;;;;;20.57;46.01;101699.38;4951605;28;2307;-64
2023/04/02 11:17:24;;;;;;;;;;;;;;;20.59;45.95;101708.16;4949107;28;2566;-65
2023/04/02 11:19:51;;;;;;;;;;;;;;;20.58;46.02;101706.66;4968906;28;1668;-65
2023/04/02 11:22:24;;;;;;;;;;;;;;;20.59;46.00;101719.66;4964858;28;2615;-65
2023/04/02 11:24:53;;;;;;;;;;;;;;;20.59;46.08;101722.53;4967818;28;2188;-65
2023/04/02 11:27:29;;;;;;;;;;;;;;;20.59;45.96;101719.66;4966427;28;2591;-64
2023/04/02 11:30:12;;;;;;;;;;;;;;;20.56;46.01;101733.16;4966473;28;2500;-64
2023/04/02 11:32:41;;;;;;;;;;;;;;;20.56;46.04;101732.41;4946771;28;1687;-65
2023/04/02 11:35:23;;;;;;;;;;;;;;;20.58;46.12;101746.94;4964856;28;2539;-64
2023/04/02 11:37:49;;;;;;;;;;;;;;;20.57;46.18;101739.66;4965890;28;2691;-65
2023/04/02 11:40:16;;;;;;;;;;;;;;;20.56;46.13;101749.66;4965380;28;2563;-65
2023/04/02 11:42:42;;;;;;;;;;;;;;;20.57;46.29;101749.06;4966482;28;2658;-64
2023/04/02 11:45:27;;;;;;;;;;;;;;;20.55;46.11;101748.16;4965972;28;2496;-65
2023/04/02 11:47:59;;;;;;;;;;;;;;;20.55;46.05;101748.16;4967499;28;2413;-65
2023/04/02 11:50:27;;;;;;;;;;;;;;;20.58;46.07;101744.06;4966707;28;2321;-64
2023/04/02 11:52:54;;;;;;;;;;;;;;;20.59;46.06;101742.69;4966551;28;2710;-65
2023/04/02 11:55:26;;;;;;;;;;;;;;;20.58;46.02;101730.41;4959692;28;2387;-65
2023/04/02 11:58:11;;;;;;;;;;;;;;;20.59;46.04;101743.44;4966163;28;2556;-65
2023/04/02 12:00:56;;;;;;;;;;;;;;;20.61;46.30;101745.69;4966104;28;2812;-65
2023/04/02 12:03:28;;;;;;;;;;;;;;;20.62;46.18;101747.19;4967330;28;3017;-65
2023/04/02 12:05:58;;;;;;;;;;;;;;;20.63;46.24;101748.69;4965663;28;2608;-65
2023/04/02 12:08:32;;;;;;;;;;;;;;;20.61;46.21;101754.31;4966398;28;2521;-65
2023/04/02 12:11:05;;;;;;;;;;;;;;;20.63;46.08;101760.19;4966221;28;2638;-65
2023/04/02 12:13:40;;;;;;;;;;;;;;;20.66;46.01;101764.69;4962268;28;2481;-65
2023/04/02 12:16:07;;;;;;;;;;;;;;;20.64;46.29;101761.69;4966889;28;2390;-65
2023/04/02 12:18:33;;;;;;;;;;;;;;;20.61;46.12;101771.56;4963608;28;2691;-65
2023/04/02 12:21:00;;;;;;;;;;;;;;;20.61;46.35;101778.06;4965371;28;2639;-65
2023/04/02 12:23:32;;;;;;;;;;;;;;;20.61;46.12;101780.22;4965657;28;3032;-65
2023/04/02 12:26:00;;;;;;;;;;;;;;;20.64;45.96;101778.97;4963275;28;2448;-65
2023/04/02 12:28:30;;;;;;;;;;;;;;;20.63;46.18;101783.97;4966669;28;2698;-65
2023/04/02 12:31:08;;;;;;;;;;;;;;;20.65;46.22;101791.97;4966655;28;2614;-65
2023/04/02 12:33:36;;;;;;;;;;;;;;;20.67;46.17;101789.22;4965792;28;2687;-65
2023/04/02 12:36:04;;;;;;;;;;;;;;;20.66;46.13;101793.47;4964109;28;2757;-65
2023/04/02 12:38:35;;;;;;;;;;;;;;;20.66;46.17;101799.22;4966776;28;2322;-65
2023/04/02 12:41:03;;;;;;;;;;;;;;;20.64;46.32;101796.25;4966706;28;2925;-65
2023/04/02 12:43:30;;;;;;;;;;;;;;;20.65;46.26;101803.47;4965917;28;2592;-65
2023/04/02 12:45:57;;;;;;;;;;;;;;;20.64;46.14;101796.25;4963631;28;2595;-66
2023/04/02 12:48:23;;;;;;;;;;;;;;;20.68;46.18;101805.09;4965954;28;2590;-65
2023/04/02 12:50:50;;;;;;;;;;;;;;;20.71;46.03;101804.59;4964012;28;2416;-66
2023/04/02 12:53:17;;;;;;;;;;;;;;;20.68;45.96;101797.22;4964849;28;2640;-65
2023/04/02 12:55:45;;;;;;;;;;;;;;;20.70;46.27;101810.97;4965282;28;2581;-65
2023/04/02 12:58:25;;;;;;;;;;;;;;;20.68;46.01;101810.84;4944735;28;2653;-66
2023/04/02 13:00:51;;;;;;;;;;;;;;;20.69;46.21;101815.25;4966413;28;2449;-65
2023/04/02 13:03:19;;;;;;;;;;;;;;;20.70;46.16;101816.72;4964337;28;2631;-66
2023/04/02 13:05:47;;;;;;;;;;;;;;;20.69;46.01;101815.25;4967337;28;2465;-65
2023/04/02 13:08:32;;;;;;;;;;;;;;;20.69;46.08;101812.38;4962708;28;3162;-66